Main page
METAR-TAF:

METAR-TAF

Airports :

Chandigarh International Airport

Chandigarh, India

latitude: 30-40-29N, longitude: 76-47-26E, elevation: 314 m

METAR: missing

Time: 02:29 (20:59 UTC)

Forecast

The report was made 5 hours and 29 minutes ago, at 15:30 UTC
Forecast valid from 28 at 18 UTC to 29 at 06 UTC
Wind 2 kt from variable directions
Visibility: 6000 m
Clear sky
Becoming
from 28 at 20 UTC to 28 at 22 UTC
Wind 2 kt from variable directions
Visibility: 5000 m
Clear sky
mist
Becoming
from 29 at 00 UTC to 29 at 02 UTC
Wind 10 kt from the Northwest
Visibility: 4000 m
Clear sky
mist
Becoming
from 29 at 04 UTC to 29 at 06 UTC
Wind 8 kt from the Northwest
Visibility: 6000 m

TAF: VICG 281530Z 2818/2906 VRB02KT 6000 SKC BECMG 2820/2822 VRB02KT 5000 BR SKC BECMG 2900/2902 32010KT 4000 BR SKC BECMG 2904/2906 31008KT 6000 NSC

Weather observations and forecasts of more than 4000 airports (METAR and TAF reports).

The available stations are represented by yellow and red dots on the map.

Hover mouse over dot to see the name of the station.

Then click to see weather observations and forecasts.

To change the map : click on the green buttons with a black cross to zoom in, on the green button with a dash to zoom out, or on the green arrows for adjacent maps.


METAR-TAF: